Time;durP1;ratioP1;P1;durP2;ratioP2;P2;SDS_P1;SDS_P2;PMS_P1;PMS_P2;Temp;Humidity;BMP_temperature;BMP_pressure;BME280_temperature;BME280_humidity;BME280_pressure;Samples;Min_cycle;Max_cycle;Signal;HPM_P1;HPM_P2
2022/09/02 00:01:25;;;;;;;;;;;;;;;23.54;82.96;96746.96;600260;236;65024;-68
2022/09/02 00:03:54;;;;;;;;;;;;;;;23.54;83.10;96734.34;600370;236;64663;-69
2022/09/02 00:06:23;;;;;;;;;;;;;;;23.55;83.05;96729.80;600330;236;62776;-69
2022/09/02 00:08:52;;;;;;;;;;;;;;;23.54;82.86;96730.87;600672;234;66756;-69
2022/09/02 00:11:21;;;;;;;;;;;;;;;23.54;82.85;96734.34;604784;234;64787;-69
2022/09/02 00:13:50;;;;;;;;;;;;;;;23.54;82.59;96720.93;604785;234;62771;-69
2022/09/02 00:16:22;;;;;;;;;;;;;;;23.54;82.60;96723.61;604762;234;67290;-70
2022/09/02 00:18:50;;;;;;;;;;;;;;;23.53;82.69;96708.63;604777;234;61452;-69
2022/09/02 00:21:20;;;;;;;;;;;;;;;23.54;82.95;96699.47;604818;234;63101;-69
2022/09/02 00:23:50;;;;;;;;;;;;;;;23.55;82.78;96711.81;604771;234;64587;-69
2022/09/02 00:26:18;;;;;;;;;;;;;;;23.54;82.87;96718.25;604812;234;64816;-69
2022/09/02 00:28:46;;;;;;;;;;;;;;;23.54;82.74;96728.98;604751;234;63041;-69
2022/09/02 00:31:15;;;;;;;;;;;;;;;23.54;83.08;96728.98;604809;234;64765;-69
2022/09/02 00:33:43;;;;;;;;;;;;;;;23.54;82.87;96720.93;604777;234;67069;-70
2022/09/02 00:36:12;;;;;;;;;;;;;;;23.54;82.76;96717.45;604812;234;62699;-69
2022/09/02 00:38:41;;;;;;;;;;;;;;;23.54;82.92;96715.56;604695;234;65070;-69
2022/09/02 00:41:11;;;;;;;;;;;;;;;23.53;82.96;96716.67;604772;234;66978;-69
2022/09/02 00:43:43;;;;;;;;;;;;;;;23.55;83.26;96724.44;604819;234;65117;-69
2022/09/02 00:46:13;;;;;;;;;;;;;;;23.55;83.31;96719.07;604764;234;64984;-69
2022/09/02 00:48:42;;;;;;;;;;;;;;;23.53;83.23;96729.28;604816;234;64951;-70
2022/09/02 00:51:11;;;;;;;;;;;;;;;23.53;83.37;96724.72;604743;234;65011;-69
2022/09/02 00:53:40;;;;;;;;;;;;;;;23.53;82.99;96726.61;604787;234;67282;-69
2022/09/02 00:56:11;;;;;;;;;;;;;;;23.53;83.01;96732.77;604782;234;66849;-70
2022/09/02 00:58:42;;;;;;;;;;;;;;;23.53;83.47;96730.08;604808;234;63044;-70
2022/09/02 01:01:11;;;;;;;;;;;;;;;23.53;83.06;96740.02;604761;234;67266;-70
2022/09/02 01:03:40;;;;;;;;;;;;;;;23.53;83.11;96745.38;604726;234;67397;-69
2022/09/02 01:06:10;;;;;;;;;;;;;;;23.52;83.20;96741.91;604791;234;62996;-69
2022/09/02 01:08:38;;;;;;;;;;;;;;;23.52;82.99;96747.27;604744;234;65274;-70
2022/09/02 01:11:08;;;;;;;;;;;;;;;23.54;83.08;96741.59;604798;234;66893;-69
2022/09/02 01:13:37;;;;;;;;;;;;;;;23.53;83.12;96745.38;604762;234;65155;-69
2022/09/02 01:16:06;;;;;;;;;;;;;;;23.53;83.19;96740.02;604793;234;67393;-69
2022/09/02 01:18:35;;;;;;;;;;;;;;;23.53;83.23;96735.44;604681;234;67011;-70
2022/09/02 01:21:05;;;;;;;;;;;;;;;23.53;83.33;96740.80;604817;234;65055;-70
2022/09/02 01:23:34;;;;;;;;;;;;;;;23.52;83.48;96736.55;604750;234;64606;-69
2022/09/02 01:26:04;;;;;;;;;;;;;;;23.53;83.65;96732.77;604818;234;67653;-69
2022/09/02 01:28:32;;;;;;;;;;;;;;;23.53;83.43;96726.61;604722;234;63022;-69
2022/09/02 01:31:00;;;;;;;;;;;;;;;23.52;83.34;96723.13;604732;234;65948;-69
2022/09/02 01:33:29;;;;;;;;;;;;;;;23.53;83.75;96723.92;604800;234;66944;-70
2022/09/02 01:35:58;;;;;;;;;;;;;;;23.52;83.46;96723.13;604704;234;65254;-70
2022/09/02 01:38:27;;;;;;;;;;;;;;;23.52;83.75;96725.81;604788;234;67220;-69
2022/09/02 01:40:56;;;;;;;;;;;;;;;23.52;83.41;96723.13;604751;234;64809;-69
2022/09/02 01:43:26;;;;;;;;;;;;;;;23.53;83.40;96721.24;604763;234;65394;-70
2022/09/02 01:45:55;;;;;;;;;;;;;;;23.52;83.38;96715.09;604788;234;65086;-69
2022/09/02 01:48:24;;;;;;;;;;;;;;;23.52;83.16;96719.63;604768;234;67085;-69
2022/09/02 01:50:54;;;;;;;;;;;;;;;23.52;83.25;96717.77;604763;234;62994;-70
2022/09/02 01:53:23;;;;;;;;;;;;;;;23.51;83.32;96713.48;604718;234;64613;-69
2022/09/02 01:55:52;;;;;;;;;;;;;;;23.52;83.42;96709.72;597356;234;65826;-69
2022/09/02 01:58:20;;;;;;;;;;;;;;;23.52;83.39;96707.04;604765;234;63076;-70
2022/09/02 02:00:50;;;;;;;;;;;;;;;23.52;83.59;96709.72;604765;234;65110;-70
2022/09/02 02:03:19;;;;;;;;;;;;;;;23.52;83.54;96709.72;604760;234;66918;-69
2022/09/02 02:05:47;;;;;;;;;;;;;;;23.51;83.57;96702.75;604787;234;65697;-69
2022/09/02 02:08:16;;;;;;;;;;;;;;;23.52;83.60;96703.53;604676;234;67207;-69
2022/09/02 02:10:46;;;;;;;;;;;;;;;23.51;83.23;96705.43;600866;234;66873;-69
2022/09/02 02:13:15;;;;;;;;;;;;;;;23.51;83.31;96700.06;600274;236;63043;-69
2022/09/02 02:15:44;;;;;;;;;;;;;;;23.51;83.23;96692.02;600316;236;65078;-70
2022/09/02 02:18:13;;;;;;;;;;;;;;;23.51;83.34;96694.70;600253;236;67388;-70
2022/09/02 02:20:41;;;;;;;;;;;;;;;23.51;83.41;96689.34;600288;236;63098;-69
2022/09/02 02:23:09;;;;;;;;;;;;;;;23.51;83.39;96694.70;600302;236;64821;-69
2022/09/02 02:25:38;;;;;;;;;;;;;;;23.51;83.32;96692.02;600268;236;66888;-69
2022/09/02 02:28:07;;;;;;;;;;;;;;;23.51;83.16;96700.06;600317;236;63019;-70
2022/09/02 02:30:36;;;;;;;;;;;;;;;23.50;83.36;96690.44;600261;236;67265;-69
2022/09/02 02:33:04;;;;;;;;;;;;;;;23.51;83.44;96696.59;600339;236;64994;-70
2022/09/02 02:35:32;;;;;;;;;;;;;;;23.51;83.51;96705.43;600274;236;64978;-69
2022/09/02 02:38:01;;;;;;;;;;;;;;;23.51;83.72;96704.64;600328;236;67620;-69
2022/09/02 02:40:30;;;;;;;;;;;;;;;23.51;83.66;96699.27;600265;236;67186;-69
2022/09/02 02:42:58;;;;;;;;;;;;;;;23.51;83.78;96705.43;600316;236;64974;-69
2022/09/02 02:45:31;;;;;;;;;;;;;;;23.50;83.77;96695.80;600308;236;67474;-69
2022/09/02 02:48:01;;;;;;;;;;;;;;;23.50;83.72;96698.48;600067;236;48908;-69
2022/09/02 02:50:30;;;;;;;;;;;;;;;23.50;83.79;96698.48;600409;236;44079;-70
2022/09/02 02:53:00;;;;;;;;;;;;;;;23.50;83.51;96698.48;600307;236;64914;-70
2022/09/02 02:55:29;;;;;;;;;;;;;;;23.49;83.66;96695.02;600356;236;65127;-69
2022/09/02 02:57:57;;;;;;;;;;;;;;;23.50;83.50;96687.76;600300;236;64942;-69
2022/09/02 03:00:27;;;;;;;;;;;;;;;23.49;83.45;96675.45;600308;236;64605;-70
2022/09/02 03:03:03;;;;;;;;;;;;;;;23.50;83.60;96687.76;600329;236;64701;-69
2022/09/02 03:05:34;;;;;;;;;;;;;;;23.49;83.46;96686.17;600349;236;62701;-69
2022/09/02 03:08:04;;;;;;;;;;;;;;;23.50;83.68;96690.44;595010;236;68524;-70
2022/09/02 03:10:34;;;;;;;;;;;;;;;23.49;83.89;96699.59;603796;234;64940;-70
2022/09/02 03:13:02;;;;;;;;;;;;;;;23.49;83.69;96694.22;604776;234;65130;-70
2022/09/02 03:15:31;;;;;;;;;;;;;;;23.48;83.61;96690.72;604755;234;67120;-69
2022/09/02 03:17:59;;;;;;;;;;;;;;;23.49;83.45;96678.13;604807;234;64975;-70
2022/09/02 03:20:28;;;;;;;;;;;;;;;23.48;83.29;96674.62;604766;234;64730;-70
2022/09/02 03:22:59;;;;;;;;;;;;;;;23.47;83.21;96675.73;604864;234;48765;-70
2022/09/02 03:25:29;;;;;;;;;;;;;;;23.48;83.23;96684.56;604756;234;66881;-69
2022/09/02 03:27:58;;;;;;;;;;;;;;;23.48;83.42;96688.04;604810;234;63100;-70
2022/09/02 03:30:28;;;;;;;;;;;;;;;23.48;83.42;96688.04;604774;234;65076;-70
2022/09/02 03:32:58;;;;;;;;;;;;;;;23.49;83.11;96691.55;604730;234;65342;-69
2022/09/02 03:35:27;;;;;;;;;;;;;;;23.49;83.21;96686.17;604791;234;63048;-69
2022/09/02 03:37:57;;;;;;;;;;;;;;;23.48;83.11;96679.99;604734;234;67267;-70
2022/09/02 03:40:26;;;;;;;;;;;;;;;23.48;82.95;96671.16;604836;234;65009;-70
2022/09/02 03:42:55;;;;;;;;;;;;;;;23.48;82.95;96689.93;604760;234;63013;-69
2022/09/02 03:45:24;;;;;;;;;;;;;;;23.48;82.89;96689.93;604805;234;67280;-69
2022/09/02 03:47:53;;;;;;;;;;;;;;;23.48;83.08;96701.45;604738;234;66996;-70
2022/09/02 03:50:24;;;;;;;;;;;;;;;23.49;83.12;96713.00;604803;234;42404;-69
2022/09/02 03:52:53;;;;;;;;;;;;;;;23.48;83.09;96712.17;604756;234;67017;-70
2022/09/02 03:55:23;;;;;;;;;;;;;;;23.47;83.03;96705.23;604735;234;67002;-69
2022/09/02 03:57:51;;;;;;;;;;;;;;;23.48;83.11;96712.17;604800;234;65126;-69
2022/09/02 04:00:40;;;;;;;;;;;;;;;23.48;83.18;96712.17;604766;234;64709;-70
2022/09/02 04:03:08;;;;;;;;;;;;;;;23.47;83.01;96721.33;604756;234;67566;-70
2022/09/02 04:05:36;;;;;;;;;;;;;;;23.49;83.03;96729.88;604768;234;62510;-69
2022/09/02 04:08:04;;;;;;;;;;;;;;;23.48;83.08;96736.31;604737;234;67302;-69
2022/09/02 04:10:32;;;;;;;;;;;;;;;23.48;83.19;96735.52;604708;234;65054;-69
2022/09/02 04:12:59;;;;;;;;;;;;;;;23.48;83.01;96743.57;604833;234;65792;-69
2022/09/02 04:15:27;;;;;;;;;;;;;;;23.48;83.18;96738.20;604769;234;67005;-69
2022/09/02 04:17:55;;;;;;;;;;;;;;;23.48;83.30;96732.84;604796;234;66931;-69
2022/09/02 04:20:23;;;;;;;;;;;;;;;23.48;83.02;96732.84;604791;234;62537;-69
2022/09/02 04:22:51;;;;;;;;;;;;;;;23.47;83.20;96742.78;604743;234;66933;-70
2022/09/02 04:25:19;;;;;;;;;;;;;;;23.47;83.14;96739.30;604782;234;64485;-69
2022/09/02 04:27:46;;;;;;;;;;;;;;;23.47;83.10;96736.63;604826;234;63852;-69
2022/09/02 04:30:15;;;;;;;;;;;;;;;23.48;83.04;96743.57;604771;234;67926;-69
2022/09/02 04:32:44;;;;;;;;;;;;;;;23.47;83.03;96739.30;604796;234;67176;-70
2022/09/02 04:35:12;;;;;;;;;;;;;;;23.46;83.24;96735.02;604792;234;63193;-69
2022/09/02 04:37:40;;;;;;;;;;;;;;;23.47;83.14;96736.63;597344;234;68121;-69
2022/09/02 04:40:09;;;;;;;;;;;;;;;23.47;83.03;96741.98;604733;234;66845;-69
2022/09/02 04:42:37;;;;;;;;;;;;;;;23.47;83.30;96736.63;604729;234;63105;-69
2022/09/02 04:45:06;;;;;;;;;;;;;;;23.46;82.97;96729.65;604748;234;67736;-70
2022/09/02 04:47:34;;;;;;;;;;;;;;;23.46;82.99;96719.74;604740;234;65561;-70
2022/09/02 04:50:01;;;;;;;;;;;;;;;23.47;82.98;96725.89;604754;234;65910;-70
2022/09/02 04:52:30;;;;;;;;;;;;;;;23.46;83.28;96735.84;604812;234;65859;-69
2022/09/02 04:54:59;;;;;;;;;;;;;;;23.46;83.19;96746.56;604741;234;66993;-70
2022/09/02 04:57:28;;;;;;;;;;;;;;;23.47;83.20;96760.77;604741;234;62420;-70
2022/09/02 04:59:56;;;;;;;;;;;;;;;23.46;83.31;96768.02;604772;234;67284;-69
2022/09/02 05:02:24;;;;;;;;;;;;;;;23.46;83.52;96769.87;604749;234;67225;-69
2022/09/02 05:04:52;;;;;;;;;;;;;;;23.46;83.49;96767.20;604809;234;64836;-69
2022/09/02 05:07:21;;;;;;;;;;;;;;;23.45;83.46;96761.04;604568;234;45697;-70
2022/09/02 05:09:49;;;;;;;;;;;;;;;23.45;83.43;96761.04;602532;234;64909;-70
2022/09/02 05:12:17;;;;;;;;;;;;;;;23.46;83.41;96756.47;600248;236;65036;-70
2022/09/02 05:14:47;;;;;;;;;;;;;;;23.46;83.31;96767.20;600244;236;43751;-70
2022/09/02 05:17:15;;;;;;;;;;;;;;;23.45;83.44;96763.72;600269;236;66898;-70
2022/09/02 05:19:44;;;;;;;;;;;;;;;23.46;83.61;96761.83;600325;236;65743;-69
2022/09/02 05:22:13;;;;;;;;;;;;;;;23.45;83.58;96766.41;600264;236;67772;-70
2022/09/02 05:24:42;;;;;;;;;;;;;;;23.45;83.35;96765.61;600389;236;66889;-70
2022/09/02 05:27:11;;;;;;;;;;;;;;;23.45;83.49;96768.30;600369;236;44027;-67
2022/09/02 05:29:39;;;;;;;;;;;;;;;23.45;83.40;96760.25;600312;236;64577;-67
2022/09/02 05:32:07;;;;;;;;;;;;;;;23.44;83.35;96767.51;600308;236;67937;-67
2022/09/02 05:34:35;;;;;;;;;;;;;;;23.45;83.37;96765.61;600269;236;65799;-67
2022/09/02 05:37:04;;;;;;;;;;;;;;;23.45;83.35;96765.61;600187;236;65047;-66
2022/09/02 05:39:35;;;;;;;;;;;;;;;23.45;83.29;96766.41;600221;236;65229;-67
2022/09/02 05:42:03;;;;;;;;;;;;;;;23.45;83.49;96760.25;600257;236;65659;-66
2022/09/02 05:44:32;;;;;;;;;;;;;;;23.44;83.46;96750.62;594996;236;68405;-66
2022/09/02 05:46:59;;;;;;;;;;;;;;;23.44;83.72;96751.41;600226;236;64846;-67
2022/09/02 05:49:27;;;;;;;;;;;;;;;23.44;83.80;96748.73;600275;236;66248;-67
2022/09/02 05:51:58;;;;;;;;;;;;;;;23.44;83.67;96758.67;600169;236;44115;-66
2022/09/02 05:54:29;;;;;;;;;;;;;;;23.45;83.66;96768.30;599907;236;49450;-66
2022/09/02 05:56:59;;;;;;;;;;;;;;;23.43;83.82;96778.52;600204;236;64769;-69
2022/09/02 05:59:28;;;;;;;;;;;;;;;23.42;84.23;96772.36;600288;236;67221;-69
2022/09/02 06:01:56;;;;;;;;;;;;;;;23.40;84.17;96774.53;600235;236;65196;-70
2022/09/02 06:04:24;;;;;;;;;;;;;;;23.40;83.91;96784.47;600240;236;64940;-68
2022/09/02 06:06:53;;;;;;;;;;;;;;;23.38;83.52;96784.77;600271;236;64947;-69
2022/09/02 06:09:22;;;;;;;;;;;;;;;23.39;83.17;96788.24;601494;234;66876;-68
2022/09/02 06:11:51;;;;;;;;;;;;;;;23.38;82.79;96786.63;604772;234;65259;-68
2022/09/02 06:14:21;;;;;;;;;;;;;;;23.38;82.19;96781.27;604072;234;48354;-67
2022/09/02 06:16:54;;;;;;;;;;;;;;;23.38;82.22;96779.41;604745;234;65070;-68
2022/09/02 06:19:24;;;;;;;;;;;;;;;23.38;82.48;96765.18;604626;234;43905;-65
2022/09/02 06:21:52;;;;;;;;;;;;;;;23.38;82.99;96768.68;604770;234;67457;-67
2022/09/02 06:24:21;;;;;;;;;;;;;;;23.38;83.04;96781.27;597376;234;66560;-68
2022/09/02 06:26:49;;;;;;;;;;;;;;;23.39;83.13;96777.52;604788;234;65902;-67
2022/09/02 06:29:17;;;;;;;;;;;;;;;23.39;82.98;96782.88;604780;234;67333;-67
2022/09/02 06:31:46;;;;;;;;;;;;;;;23.38;82.96;96781.27;604788;234;66891;-67
2022/09/02 06:34:15;;;;;;;;;;;;;;;23.40;82.78;96795.19;604062;234;65036;-67
2022/09/02 06:36:45;;;;;;;;;;;;;;;23.40;82.73;96800.55;604463;234;64913;-67
2022/09/02 06:39:14;;;;;;;;;;;;;;;23.40;82.65;96805.92;603135;234;67194;-67
2022/09/02 06:41:45;;;;;;;;;;;;;;;23.41;82.66;96810.21;604189;234;65336;-67
2022/09/02 06:44:14;;;;;;;;;;;;;;;23.42;82.76;96803.75;604518;234;67019;-67
2022/09/02 06:46:46;;;;;;;;;;;;;;;23.41;82.78;96808.32;604625;234;66864;-67
2022/09/02 06:49:15;;;;;;;;;;;;;;;23.41;82.70;96808.32;604649;234;62870;-67
2022/09/02 06:51:46;;;;;;;;;;;;;;;23.41;82.52;96818.25;604713;234;43868;-67
2022/09/02 06:54:15;;;;;;;;;;;;;;;23.41;82.58;96813.68;604657;234;68433;-67
2022/09/02 06:56:44;;;;;;;;;;;;;;;23.42;82.46;96814.48;604667;234;65131;-67
2022/09/02 06:59:12;;;;;;;;;;;;;;;23.42;82.43;96811.80;604721;234;67720;-66
2022/09/02 07:01:44;;;;;;;;;;;;;;;23.41;82.38;96807.53;604672;234;67421;-67
2022/09/02 07:06:59;;;;;;;;;;;;;;;23.42;82.32;96804.54;604732;234;67494;-63
2022/09/02 07:09:31;;;;;;;;;;;;;;;23.41;82.24;96797.59;603120;234;45421;-67
2022/09/02 07:12:02;;;;;;;;;;;;;;;23.40;79.12;96800.55;600134;236;42068;-68
2022/09/02 07:14:30;;;;;;;;;;;;;;;23.41;79.76;96802.95;600221;236;65870;-67
2022/09/02 07:16:58;;;;;;;;;;;;;;;23.42;80.59;96809.11;597401;236;67378;-67
2022/09/02 07:19:28;;;;;;;;;;;;;;;23.42;81.14;96809.11;597569;237;43192;-67
2022/09/02 07:21:56;;;;;;;;;;;;;;;23.42;81.42;96809.91;597652;237;64562;-67
2022/09/02 07:24:24;;;;;;;;;;;;;;;23.43;81.72;96810.70;597421;237;67422;-67
2022/09/02 07:26:51;;;;;;;;;;;;;;;23.44;82.03;96817.67;597622;237;65156;-67
2022/09/02 07:29:19;;;;;;;;;;;;;;;23.43;82.22;96819.53;592872;237;66136;-67
2022/09/02 07:31:47;;;;;;;;;;;;;;;23.43;82.41;96822.21;597596;237;67564;-68
2022/09/02 07:34:17;;;;;;;;;;;;;;;23.43;82.56;96816.84;597775;235;41893;-67
2022/09/02 07:36:45;;;;;;;;;;;;;;;23.44;82.84;96820.35;597639;236;64985;-67
2022/09/02 07:39:13;;;;;;;;;;;;;;;23.44;82.84;96828.40;597613;237;67447;-66
2022/09/02 07:41:42;;;;;;;;;;;;;;;23.45;82.95;96829.98;597511;237;63015;-66
2022/09/02 07:44:10;;;;;;;;;;;;;;;23.45;82.96;96819.25;597577;237;67525;-69
2022/09/02 07:46:37;;;;;;;;;;;;;;;23.45;83.03;96824.62;597615;237;66982;-67
2022/09/02 07:49:07;;;;;;;;;;;;;;;23.45;83.08;96829.98;597437;236;63719;-67
2022/09/02 07:51:35;;;;;;;;;;;;;;;23.44;83.00;96839.13;597608;237;65766;-67
2022/09/02 07:54:05;;;;;;;;;;;;;;;23.45;83.07;96846.07;597593;237;67201;-67
2022/09/02 07:56:32;;;;;;;;;;;;;;;23.46;83.05;96850.34;597611;237;65035;-67
2022/09/02 07:59:01;;;;;;;;;;;;;;;23.45;83.05;96857.59;597616;237;67692;-67
2022/09/02 08:01:29;;;;;;;;;;;;;;;23.45;83.04;96846.86;597649;237;67080;-66
2022/09/02 08:03:57;;;;;;;;;;;;;;;23.45;83.07;96846.07;597624;237;65234;-65
2022/09/02 08:06:27;;;;;;;;;;;;;;;23.45;83.01;96840.70;597613;236;46596;-66
2022/09/02 08:08:55;;;;;;;;;;;;;;;23.45;82.98;96832.66;597559;235;67032;-65
2022/09/02 08:11:23;;;;;;;;;;;;;;;23.45;82.97;96829.98;597643;236;64936;-65
2022/09/02 08:13:50;;;;;;;;;;;;;;;23.45;82.92;96836.13;597626;236;64729;-66
2022/09/02 08:16:18;;;;;;;;;;;;;;;23.46;82.94;96842.29;597703;237;64601;-66
2022/09/02 08:18:47;;;;;;;;;;;;;;;23.45;82.92;96846.86;597641;237;65231;-66
2022/09/02 08:21:14;;;;;;;;;;;;;;;23.46;82.97;96853.02;597610;236;64847;-67
2022/09/02 08:23:42;;;;;;;;;;;;;;;23.47;82.95;96846.58;597691;237;64464;-67
2022/09/02 08:26:10;;;;;;;;;;;;;;;23.46;82.98;96855.70;597664;237;62753;-66
2022/09/02 08:28:38;;;;;;;;;;;;;;;23.46;82.97;96842.29;597700;237;66751;-65
2022/09/02 08:31:06;;;;;;;;;;;;;;;23.46;83.02;96837.75;597663;237;67043;-66
2022/09/02 08:33:35;;;;;;;;;;;;;;;23.46;83.01;96831.56;597639;236;65130;-66
2022/09/02 08:36:08;;;;;;;;;;;;;;;23.46;83.07;96826.20;597637;236;66893;-66
2022/09/02 08:38:35;;;;;;;;;;;;;;;23.46;83.09;96828.88;597672;237;64801;-65
2022/09/02 08:41:04;;;;;;;;;;;;;;;23.46;83.06;96836.92;597701;237;65074;-66
2022/09/02 08:43:38;;;;;;;;;;;;;;;23.45;83.01;96846.86;597451;237;66925;-65
2022/09/02 08:46:08;;;;;;;;;;;;;;;23.47;83.06;96839.33;597593;236;67344;-64
2022/09/02 08:48:37;;;;;;;;;;;;;;;23.46;83.04;96837.75;597626;237;64780;-65
2022/09/02 08:51:07;;;;;;;;;;;;;;;23.46;83.06;96837.75;597626;237;64460;-64
2022/09/02 08:53:42;;;;;;;;;;;;;;;23.46;83.12;96832.38;597558;237;66773;-64
2022/09/02 08:56:11;;;;;;;;;;;;;;;23.47;83.07;96835.86;597799;236;65218;-64
2022/09/02 08:58:40;;;;;;;;;;;;;;;23.46;83.08;96828.88;600297;236;67454;-68
2022/09/02 09:01:15;;;;;;;;;;;;;;;23.46;83.13;96836.92;600282;236;64832;-68
2022/09/02 09:03:44;;;;;;;;;;;;;;;23.46;83.08;96834.24;600029;236;66108;-69
2022/09/02 09:06:32;;;;;;;;;;;;;;;23.46;83.11;96832.38;599647;236;67220;-66
2022/09/02 09:09:01;;;;;;;;;;;;;;;23.46;83.14;96834.24;600160;236;66998;-67
2022/09/02 09:11:30;;;;;;;;;;;;;;;23.46;83.13;96842.29;600213;236;64165;-67
2022/09/02 09:14:08;;;;;;;;;;;;;;;23.46;83.12;96836.92;600138;236;67372;-71
2022/09/02 09:16:46;;;;;;;;;;;;;;;23.45;81.44;96830.77;600074;236;65679;-68
2022/09/02 09:19:15;;;;;;;;;;;;;;;23.45;82.48;96824.62;600221;236;64768;-69
2022/09/02 09:21:44;;;;;;;;;;;;;;;23.45;82.56;96830.77;600167;236;64905;-69
2022/09/02 09:24:28;;;;;;;;;;;;;;;23.46;82.39;96834.24;600225;236;65142;-69
2022/09/02 09:26:56;;;;;;;;;;;;;;;23.45;82.42;96828.09;600289;236;66405;-68
2022/09/02 09:29:23;;;;;;;;;;;;;;;23.45;82.51;96820.05;600274;236;65713;-71
2022/09/02 09:31:52;;;;;;;;;;;;;;;23.47;82.59;96822.45;600225;236;64766;-69
2022/09/02 09:34:20;;;;;;;;;;;;;;;23.46;82.65;96839.61;600190;236;65015;-69
2022/09/02 09:36:50;;;;;;;;;;;;;;;23.46;82.69;96853.02;600289;236;67068;-68
2022/09/02 09:39:19;;;;;;;;;;;;;;;23.46;82.74;96850.34;600259;236;66879;-70
2022/09/02 09:41:47;;;;;;;;;;;;;;;23.46;82.86;96853.02;600310;236;65308;-69
2022/09/02 09:44:36;;;;;;;;;;;;;;;23.46;82.78;96847.66;600301;236;46539;-70
2022/09/02 09:47:08;;;;;;;;;;;;;;;23.46;82.83;96853.02;600227;236;67480;-68
2022/09/02 09:49:38;;;;;;;;;;;;;;;23.46;82.83;96842.29;600010;236;65360;-68
2022/09/02 09:52:08;;;;;;;;;;;;;;;23.46;82.86;96844.97;600170;236;65043;-69
2022/09/02 09:54:36;;;;;;;;;;;;;;;23.45;82.81;96844.18;600278;236;67205;-68
2022/09/02 09:57:17;;;;;;;;;;;;;;;23.46;82.89;96840.43;600241;236;62702;-68
2022/09/02 09:59:48;;;;;;;;;;;;;;;23.45;82.91;96841.50;600148;236;64805;-69
2022/09/02 10:02:23;;;;;;;;;;;;;;;23.45;82.91;96846.07;600217;236;67054;-69
2022/09/02 10:04:53;;;;;;;;;;;;;;;23.46;82.92;96842.29;600229;236;63860;-70
2022/09/02 10:07:37;;;;;;;;;;;;;;;23.46;82.98;96844.97;584746;236;70365;-70
2022/09/02 10:10:20;;;;;;;;;;;;;;;23.46;82.99;96842.29;594753;236;47582;-70
2022/09/02 10:12:49;;;;;;;;;;;;;;;23.45;83.00;96841.50;600149;236;65360;-69
2022/09/02 10:15:18;;;;;;;;;;;;;;;23.46;83.06;96844.97;600302;236;65004;-69
2022/09/02 10:17:57;;;;;;;;;;;;;;;23.45;82.96;96846.07;600286;236;68209;-69
2022/09/02 10:20:26;;;;;;;;;;;;;;;23.45;82.85;96848.75;600138;236;63043;-69
2022/09/02 10:22:58;;;;;;;;;;;;;;;23.44;82.68;96844.48;599413;236;67382;-69
2022/09/02 10:25:28;;;;;;;;;;;;;;;23.45;82.50;96856.80;600221;236;67084;-68
2022/09/02 10:28:14;;;;;;;;;;;;;;;23.45;82.39;96862.16;600235;236;63118;-68
2022/09/02 10:30:49;;;;;;;;;;;;;;;23.45;82.37;96862.16;599221;236;67339;-69
2022/09/02 10:33:21;;;;;;;;;;;;;;;23.44;82.31;96857.90;598881;236;67130;-69
2022/09/02 10:35:51;;;;;;;;;;;;;;;23.44;82.22;96839.91;600181;236;63033;-69
2022/09/02 10:38:36;;;;;;;;;;;;;;;23.44;82.19;96844.48;600118;236;67167;-69
2022/09/02 10:41:21;;;;;;;;;;;;;;;23.44;82.15;96844.48;600200;236;66869;-69
2022/09/02 10:43:50;;;;;;;;;;;;;;;23.44;82.10;96860.58;600253;236;65197;-68
2022/09/02 10:46:19;;;;;;;;;;;;;;;23.44;82.06;96863.27;600013;236;67412;-70
2022/09/02 10:48:51;;;;;;;;;;;;;;;23.44;82.06;96852.53;600314;236;67071;-69
2022/09/02 10:51:21;;;;;;;;;;;;;;;23.44;81.83;96844.48;598651;236;65342;-67
2022/09/02 10:53:53;;;;;;;;;;;;;;;23.44;81.70;96849.85;599540;236;64791;-69
2022/09/02 10:56:25;;;;;;;;;;;;;;;23.43;81.49;96846.34;600245;236;64605;-69
2022/09/02 10:58:54;;;;;;;;;;;;;;;23.43;81.35;96837.52;600245;236;64985;-70
2022/09/02 11:01:40;;;;;;;;;;;;;;;23.43;81.26;96835.63;600304;236;47205;-70
2022/09/02 11:04:09;;;;;;;;;;;;;;;23.43;81.15;96832.94;600239;236;67015;-70
2022/09/02 11:06:39;;;;;;;;;;;;;;;23.44;81.08;96841.80;600176;236;65000;-71
2022/09/02 11:09:11;;;;;;;;;;;;;;;23.43;81.03;96838.30;600948;234;67088;-70
2022/09/02 11:11:48;;;;;;;;;;;;;;;23.44;81.05;96839.13;603458;234;48479;-71
2022/09/02 11:14:22;;;;;;;;;;;;;;;23.43;81.02;96843.66;601494;234;47522;-70
2022/09/02 11:17:01;;;;;;;;;;;;;;;23.44;81.12;96844.48;604599;234;67088;-70
2022/09/02 11:19:40;;;;;;;;;;;;;;;23.44;81.21;96844.48;604682;234;67004;-68
2022/09/02 11:22:11;;;;;;;;;;;;;;;23.44;81.40;96844.48;604805;234;48507;-71
2022/09/02 11:24:40;;;;;;;;;;;;;;;23.44;81.50;96837.23;604307;234;66819;-71
2022/09/02 11:27:28;;;;;;;;;;;;;;;23.44;81.61;96839.13;604614;233;65798;-70
2022/09/02 11:30:03;;;;;;;;;;;;;;;23.44;81.76;96823.03;604725;234;62982;-69
2022/09/02 11:32:44;;;;;;;;;;;;;;;23.45;79.26;96821.94;604698;234;67426;-69
2022/09/02 11:35:17;;;;;;;;;;;;;;;23.46;79.03;96815.47;604581;234;67123;-69
2022/09/02 11:37:50;;;;;;;;;;;;;;;23.47;81.13;96809.03;604275;234;62931;-69
2022/09/02 11:40:19;;;;;;;;;;;;;;;23.45;81.59;96795.91;604708;234;66548;-71
2022/09/02 11:43:01;;;;;;;;;;;;;;;23.45;81.90;96793.23;604587;234;64709;-69
2022/09/02 11:45:47;;;;;;;;;;;;;;;23.44;82.45;96791.64;604699;234;65306;-70
2022/09/02 11:48:28;;;;;;;;;;;;;;;23.45;82.64;96787.07;604770;234;67365;-68
2022/09/02 11:51:01;;;;;;;;;;;;;;;23.44;82.83;96774.77;604506;234;68842;-68
2022/09/02 11:53:29;;;;;;;;;;;;;;;23.44;82.90;96774.77;604531;234;62937;-67
2022/09/02 11:55:58;;;;;;;;;;;;;;;23.44;83.01;96772.08;604728;234;67330;-68
2022/09/02 11:58:36;;;;;;;;;;;;;;;23.44;83.10;96770.19;604729;234;66917;-67
2022/09/02 12:01:06;;;;;;;;;;;;;;;23.44;83.21;96775.55;603928;234;62812;-68
2022/09/02 12:03:35;;;;;;;;;;;;;;;23.45;83.24;96768.30;604512;234;64736;-68
2022/09/02 12:06:04;;;;;;;;;;;;;;;23.45;83.29;96768.30;604409;232;64736;-67
2022/09/02 12:08:35;;;;;;;;;;;;;;;23.45;83.31;96770.98;604278;234;66446;-67
2022/09/02 12:11:05;;;;;;;;;;;;;;;23.45;83.40;96765.61;600547;234;67381;-68
2022/09/02 12:13:44;;;;;;;;;;;;;;;23.44;83.50;96770.19;600647;236;64547;-67
2022/09/02 12:16:19;;;;;;;;;;;;;;;23.45;83.59;96768.30;600649;236;65063;-67
2022/09/02 12:19:06;;;;;;;;;;;;;;;23.45;83.58;96768.30;600651;233;67423;-67
2022/09/02 12:21:25;;;;;;;;;;;;;;;23.45;83.61;96769.09;600194;236;67357;-68
2022/09/02 12:23:54;;;;;;;;;;;;;;;23.45;83.62;96766.41;600714;236;63108;-68
2022/09/02 12:26:26;;;;;;;;;;;;;;;23.45;83.60;96760.25;600738;236;64664;-66
2022/09/02 12:28:56;;;;;;;;;;;;;;;23.45;83.70;96757.57;600659;236;64803;-68
2022/09/02 12:31:43;;;;;;;;;;;;;;;23.45;83.32;96754.89;600164;236;65131;-68
2022/09/02 12:34:24;;;;;;;;;;;;;;;23.43;83.67;96744.44;600696;236;67245;-68
2022/09/02 12:36:55;;;;;;;;;;;;;;;23.42;83.34;96734.81;600656;236;66779;-68
2022/09/02 12:39:26;;;;;;;;;;;;;;;23.42;82.73;96740.17;600720;236;62787;-68
2022/09/02 12:42:11;;;;;;;;;;;;;;;23.42;82.27;96742.06;600686;233;67346;-69
2022/09/02 12:44:45;;;;;;;;;;;;;;;23.42;82.04;96744.75;600748;236;49726;-69
2022/09/02 12:47:31;;;;;;;;;;;;;;;23.42;81.71;96744.75;600659;236;64957;-68
2022/09/02 12:50:06;;;;;;;;;;;;;;;23.41;81.44;96735.91;600576;236;64866;-68
2022/09/02 12:52:41;;;;;;;;;;;;;;;23.42;81.25;96739.39;600702;233;64587;-69
2022/09/02 12:55:19;;;;;;;;;;;;;;;23.43;81.15;96732.92;600716;236;65104;-68
2022/09/02 12:57:50;;;;;;;;;;;;;;;23.41;81.10;96727.08;600625;236;64566;-68
2022/09/02 13:00:33;;;;;;;;;;;;;;;23.42;81.04;96728.66;600692;236;67128;-69
2022/09/02 13:03:15;;;;;;;;;;;;;;;23.42;80.93;96734.02;600623;236;62803;-67
2022/09/02 13:05:50;;;;;;;;;;;;;;;23.41;80.86;96732.44;600339;236;67382;-67
2022/09/02 13:08:35;;;;;;;;;;;;;;;23.42;80.80;96729.45;600334;233;66875;-67